createdAt,value
2018-01-23T00:02:11.895Z,72.50
2018-01-23T00:04:39.514Z,72.40
2018-01-23T00:07:07.964Z,72.50
2018-01-23T00:09:35.579Z,72.40
2018-01-23T00:12:03.183Z,72.40
2018-01-23T00:14:30.810Z,73.20
2018-01-23T00:16:58.406Z,72.40
2018-01-23T00:19:26.070Z,72.30
2018-01-23T00:21:53.735Z,72.20
2018-01-23T00:24:21.346Z,72.10
2018-01-23T00:26:48.959Z,72.10
2018-01-23T00:29:16.542Z,72.10
2018-01-23T00:31:44.914Z,71.90
2018-01-23T00:34:13.267Z,71.80
2018-01-23T00:36:40.938Z,72.20
2018-01-23T00:39:08.526Z,71.80
2018-01-23T00:41:36.982Z,71.70
2018-01-23T00:44:04.647Z,71.70
2018-01-23T00:46:32.307Z,71.70
2018-01-23T00:48:59.970Z,72.10
2018-01-23T00:51:27.580Z,71.70
2018-01-23T00:53:55.162Z,71.70
2018-01-23T00:56:22.770Z,71.70
2018-01-23T00:58:51.247Z,72.30
2018-01-23T01:01:18.899Z,71.70
2018-01-23T01:03:46.562Z,71.70
2018-01-23T01:06:14.226Z,71.70
2018-01-23T01:08:41.835Z,71.70
2018-01-23T01:11:09.422Z,71.70
2018-01-23T01:13:37.030Z,71.60
2018-01-23T01:16:05.386Z,71.60
2018-01-23T01:18:32.995Z,71.60
2018-01-23T01:21:00.611Z,71.60
2018-01-23T01:23:28.278Z,71.50
2018-01-23T01:25:55.938Z,71.60
2018-01-23T01:28:23.602Z,71.70
2018-01-23T01:30:51.195Z,71.80
2018-01-23T01:33:19.642Z,72.00
2018-01-23T01:35:47.307Z,72.00
2018-01-23T01:38:14.915Z,72.00
2018-01-23T01:40:42.531Z,71.90
2018-01-23T01:43:10.122Z,71.90
2018-01-23T01:45:38.570Z,72.00
2018-01-23T01:48:07.662Z,72.10
2018-01-23T01:50:35.277Z,72.00
2018-01-23T01:53:02.872Z,72.10
2018-01-23T01:55:30.492Z,72.00
2018-01-23T01:57:58.110Z,72.10
2018-01-23T02:00:25.775Z,72.10
2018-01-23T02:02:53.368Z,72.00
2018-01-23T02:05:21.734Z,72.10
2018-01-23T02:07:50.096Z,72.10
2018-01-23T02:10:17.712Z,72.10
2018-01-23T02:12:45.312Z,72.20
2018-01-23T02:15:12.928Z,72.10
2018-01-23T02:17:40.556Z,72.10
2018-01-23T02:20:09.023Z,71.90
2018-01-23T02:22:36.606Z,71.90
2018-01-23T02:25:05.067Z,71.50
2018-01-23T02:27:32.650Z,71.50
2018-01-23T02:30:01.033Z,71.60
2018-01-23T02:32:29.486Z,71.50
2018-01-23T02:34:57.152Z,71.50
2018-01-23T02:37:24.815Z,71.40
2018-01-23T02:39:52.407Z,71.50
2018-01-23T02:42:20.788Z,71.60
2018-01-23T02:44:49.236Z,71.70
2018-01-23T02:47:16.900Z,71.70
2018-01-23T02:49:44.562Z,71.70
2018-01-23T02:52:12.171Z,71.70
2018-01-23T02:54:39.786Z,71.80
2018-01-23T02:57:07.447Z,71.80
2018-01-23T02:59:35.037Z,71.90
2018-01-23T03:02:03.423Z,71.80
2018-01-23T03:04:31.774Z,71.80
2018-01-23T03:06:59.388Z,71.80
2018-01-23T03:09:26.974Z,71.90
2018-01-23T03:11:54.654Z,71.80
2018-01-23T03:14:22.314Z,71.80
2018-01-23T03:16:49.982Z,71.90
2018-01-23T03:19:17.599Z,71.90
2018-01-23T03:21:45.207Z,72.00
2018-01-23T03:24:12.866Z,72.00
2018-01-23T03:26:40.450Z,71.90
2018-01-23T03:29:08.824Z,71.90
2018-01-23T03:31:37.183Z,72.00
2018-01-23T03:34:04.799Z,72.00
2018-01-23T03:36:32.387Z,72.00
2018-01-23T03:39:00.070Z,72.10
2018-01-23T03:41:28.462Z,72.10
2018-01-23T03:43:56.114Z,72.10
2018-01-23T03:46:23.766Z,72.30
2018-01-23T03:48:51.506Z,72.40
2018-01-23T03:51:19.202Z,72.30
2018-01-23T03:53:46.810Z,72.30
2018-01-23T03:56:14.398Z,72.30
2018-01-23T03:58:42.091Z,72.30
2018-01-23T04:01:09.755Z,72.30
2018-01-23T04:03:37.482Z,72.20
2018-01-23T04:06:05.067Z,72.40
2018-01-23T04:08:32.718Z,72.40
2018-01-23T04:11:00.314Z,72.40
2018-01-23T04:13:28.674Z,72.10
2018-01-23T04:15:56.289Z,72.10
2018-01-23T04:18:23.910Z,72.10
2018-01-23T04:20:51.575Z,72.20
2018-01-23T04:23:19.230Z,72.20
2018-01-23T04:25:47.626Z,72.20
2018-01-23T04:28:15.242Z,72.20
2018-01-23T04:30:42.851Z,72.20
2018-01-23T04:33:11.314Z,72.20
2018-01-23T04:35:38.963Z,72.20
2018-01-23T04:38:06.554Z,72.30
2018-01-23T04:40:34.295Z,72.30
2018-01-23T04:43:01.887Z,72.30
2018-01-23T04:45:30.283Z,72.20
2018-01-23T04:47:57.871Z,72.20
2018-01-23T04:50:25.470Z,72.10
2018-01-23T04:52:53.079Z,72.10
2018-01-23T04:55:20.675Z,72.10
2018-01-23T04:57:48.454Z,72.10
2018-01-23T05:00:16.043Z,72.10
2018-01-23T05:02:44.499Z,72.00
2018-01-23T05:05:12.163Z,72.00
2018-01-23T05:07:39.823Z,71.80
2018-01-23T05:10:08.179Z,71.60
2018-01-23T05:12:35.866Z,71.70
2018-01-23T05:15:03.451Z,71.30
2018-01-23T05:17:31.826Z,71.70
2018-01-23T05:20:00.287Z,71.80
2018-01-23T05:22:27.895Z,71.80
2018-01-23T05:24:55.510Z,71.70
2018-01-23T05:27:23.118Z,71.60
2018-01-23T05:29:50.702Z,71.60
2018-01-23T05:32:18.306Z,71.60
2018-01-23T05:34:46.675Z,71.50
2018-01-23T05:37:14.324Z,71.50
2018-01-23T05:39:41.900Z,71.50
2018-01-23T05:42:10.382Z,71.60
2018-01-23T05:44:38.043Z,71.60
2018-01-23T05:47:05.638Z,71.50
2018-01-23T05:49:34.082Z,71.70
2018-01-23T05:52:01.673Z,71.60
2018-01-23T05:54:30.159Z,71.70
2018-01-23T05:56:57.753Z,71.60
2018-01-23T05:59:25.450Z,71.50
2018-01-23T06:01:53.934Z,71.60
2018-01-23T06:04:22.418Z,71.60
2018-01-23T06:06:50.898Z,71.60
2018-01-23T06:09:18.506Z,71.50
2018-01-23T06:11:46.122Z,71.50
2018-01-23T06:14:13.730Z,71.50
2018-01-23T06:16:41.315Z,71.60
2018-01-23T06:19:09.007Z,71.60
2018-01-23T06:21:37.415Z,71.30
2018-01-23T06:24:05.039Z,71.30
2018-01-23T06:26:33.441Z,71.30
2018-01-23T06:29:01.098Z,71.20
2018-01-23T06:31:29.507Z,71.10
2018-01-23T06:33:57.863Z,71.00
2018-01-23T06:36:25.515Z,71.00
2018-01-23T06:38:53.179Z,71.00
2018-01-23T06:41:20.837Z,71.00
2018-01-23T06:43:48.571Z,70.90
2018-01-23T06:46:16.233Z,70.90
2018-01-23T06:48:43.850Z,70.80
2018-01-23T06:51:12.311Z,70.90
2018-01-23T06:53:40.690Z,71.10
2018-01-23T06:56:09.107Z,71.30
2018-01-23T06:58:36.831Z,71.30
2018-01-23T07:01:05.238Z,71.20
2018-01-23T07:03:33.599Z,71.20
2018-01-23T07:06:02.009Z,71.10
2018-01-23T07:08:29.643Z,71.00
2018-01-23T07:10:57.291Z,71.10
2018-01-23T07:13:25.784Z,71.10
2018-01-23T07:15:54.271Z,71.10
2018-01-23T07:18:22.675Z,71.20
2018-01-23T07:20:50.373Z,71.20
2018-01-23T07:23:18.071Z,71.30
2018-01-23T07:25:45.667Z,71.40
2018-01-23T07:28:13.394Z,71.30
2018-01-23T07:30:41.879Z,71.20
2018-01-23T07:33:10.287Z,71.00
2018-01-23T07:35:37.899Z,71.00
2018-01-23T07:38:06.302Z,71.00
2018-01-23T07:40:34.682Z,70.80
2018-01-23T07:43:03.086Z,70.80
2018-01-23T07:45:30.734Z,70.80
2018-01-23T07:47:58.482Z,71.00
2018-01-23T07:50:26.935Z,71.50
2018-01-23T07:52:54.575Z,71.50
2018-01-23T07:55:22.190Z,71.70
2018-01-23T07:57:50.570Z,72.30
2018-01-23T08:00:19.061Z,72.70
2018-01-23T08:02:46.722Z,72.60
2018-01-23T08:05:15.131Z,73.00
2018-01-23T08:07:42.742Z,73.00
2018-01-23T08:10:10.371Z,73.10
2018-01-23T08:12:37.987Z,73.30
2018-01-23T08:15:05.646Z,73.40
2018-01-23T08:17:34.031Z,73.40
2018-01-23T08:20:01.634Z,73.30
2018-01-23T08:22:29.252Z,73.50
2018-01-23T08:24:56.868Z,73.50
2018-01-23T08:27:24.451Z,73.50
2018-01-23T08:29:52.058Z,73.40
2018-01-23T08:32:20.514Z,73.30
2018-01-23T08:34:48.119Z,73.30
2018-01-23T08:37:15.702Z,73.30
2018-01-23T08:39:43.403Z,73.40
2018-01-23T08:42:12.499Z,73.30
2018-01-23T08:44:41.614Z,73.20
2018-01-23T08:47:10.121Z,73.20
2018-01-23T08:49:38.471Z,73.10
2018-01-23T08:52:06.847Z,73.10
2018-01-23T08:54:34.486Z,73.00
2018-01-23T08:57:02.125Z,73.00
2018-01-23T08:59:29.797Z,73.20
2018-01-23T09:01:57.411Z,73.10
2018-01-23T09:04:25.767Z,73.40
2018-01-23T09:06:53.426Z,73.30
2018-01-23T09:09:21.010Z,73.40
2018-01-23T09:11:49.387Z,73.60
2018-01-23T09:14:17.738Z,73.80
2018-01-23T09:16:46.026Z,73.70
2018-01-23T09:19:13.611Z,73.80
2018-01-23T09:21:41.982Z,73.70
2018-01-23T09:24:10.446Z,73.70
2018-01-23T09:26:38.041Z,74.50
2018-01-23T09:29:05.671Z,73.90
2018-01-23T09:31:33.256Z,74.00
2018-01-23T09:34:01.627Z,73.90
2018-01-23T09:36:29.978Z,73.90
2018-01-23T09:38:58.367Z,73.80
2018-01-23T09:41:26.036Z,73.60
2018-01-23T09:43:53.694Z,73.60
2018-01-23T09:46:21.279Z,73.60
2018-01-23T09:48:49.743Z,73.40
2018-01-23T09:51:17.398Z,73.40
2018-01-23T09:53:45.062Z,73.60
2018-01-23T09:56:12.722Z,73.80
2018-01-23T09:58:41.207Z,73.20
2018-01-23T10:01:08.871Z,73.80
2018-01-23T10:03:36.479Z,73.70
2018-01-23T10:06:04.100Z,73.50
2018-01-23T10:08:31.711Z,73.30
2018-01-23T10:10:59.299Z,73.20
2018-01-23T10:13:26.979Z,73.30
2018-01-23T10:15:55.363Z,73.40
2018-01-23T10:18:22.954Z,73.30
2018-01-23T10:20:50.587Z,73.20
2018-01-23T10:23:18.178Z,73.20
2018-01-23T10:25:45.790Z,72.90
2018-01-23T10:28:13.378Z,72.90
2018-01-23T10:30:40.988Z,73.10
2018-01-23T10:33:08.587Z,73.30
2018-01-23T10:35:36.196Z,73.30
2018-01-23T10:38:03.813Z,73.40
2018-01-23T10:40:31.475Z,73.60
2018-01-23T10:42:59.138Z,73.80
2018-01-23T10:45:26.747Z,74.00
2018-01-23T10:47:54.330Z,73.90
2018-01-23T10:50:22.023Z,74.00
2018-01-23T10:52:49.606Z,74.10
2018-01-23T10:55:18.067Z,74.20
2018-01-23T10:57:45.654Z,74.10
2018-01-23T11:00:14.110Z,74.00
2018-01-23T11:02:41.770Z,74.00
2018-01-23T11:05:09.359Z,74.20
2018-01-23T11:07:37.738Z,74.30
2018-01-23T11:10:06.095Z,74.10
2018-01-23T11:12:33.754Z,74.10
2018-01-23T11:15:02.138Z,73.80
2018-01-23T11:17:29.796Z,73.90
2018-01-23T11:19:57.459Z,73.80
2018-01-23T11:22:25.123Z,74.10
2018-01-23T11:24:52.715Z,74.20
2018-01-23T11:27:21.167Z,74.40
2018-01-23T11:29:48.827Z,74.40
2018-01-23T11:32:17.938Z,74.20
2018-01-23T11:34:45.586Z,74.10
2018-01-23T11:37:13.246Z,74.20
2018-01-23T11:39:40.910Z,74.10
2018-01-23T11:42:08.574Z,74.00
2018-01-23T11:44:36.159Z,74.00
2018-01-23T11:47:04.534Z,74.10
2018-01-23T11:49:32.995Z,74.40
2018-01-23T11:52:00.660Z,74.30
2018-01-23T11:54:28.262Z,74.70
2018-01-23T11:56:55.850Z,75.40
2018-01-23T11:59:23.546Z,74.70
2018-01-23T12:01:51.131Z,74.80
2018-01-23T12:04:19.510Z,74.70
2018-01-23T12:06:47.966Z,74.50
2018-01-23T12:09:15.630Z,74.50
2018-01-23T12:11:43.219Z,74.60
2018-01-23T12:14:11.675Z,74.60
2018-01-23T12:16:39.337Z,74.60
2018-01-23T12:19:06.956Z,74.40
2018-01-23T12:21:34.559Z,75.00
2018-01-23T12:24:02.167Z,74.00
2018-01-23T12:26:30.199Z,74.10
2018-01-23T12:28:57.854Z,74.10
2018-01-23T12:31:25.522Z,74.10
2018-01-23T12:33:53.179Z,74.10
2018-01-23T12:36:20.766Z,74.20
2018-01-23T12:38:49.144Z,74.40
2018-01-23T12:41:17.507Z,74.40
2018-01-23T12:43:45.164Z,74.40
2018-01-23T12:46:13.375Z,74.40
2018-01-23T12:48:41.727Z,74.30
2018-01-23T12:51:09.339Z,74.30
2018-01-23T12:53:36.943Z,74.30
2018-01-23T12:56:04.605Z,74.50
2018-01-23T12:58:32.230Z,74.60
2018-01-23T13:00:59.835Z,74.60
2018-01-23T13:03:27.436Z,74.60
2018-01-23T13:05:55.144Z,74.30
2018-01-23T13:08:22.726Z,74.70
2018-01-23T13:10:51.106Z,74.70
2018-01-23T13:13:18.690Z,74.70
2018-01-23T13:15:46.302Z,74.70
2018-01-23T13:18:13.954Z,74.80
2018-01-23T13:20:41.539Z,74.80
2018-01-23T13:23:09.203Z,74.80
2018-01-23T13:25:36.831Z,74.90
2018-01-23T13:28:04.527Z,75.00
2018-01-23T13:30:32.194Z,75.00
2018-01-23T13:32:59.802Z,75.00
2018-01-23T13:35:27.387Z,75.10
2018-01-23T13:37:55.142Z,75.00
2018-01-23T13:40:22.726Z,74.90
2018-01-23T13:42:50.333Z,74.80
2018-01-23T13:45:18.680Z,74.90
2018-01-23T13:47:46.281Z,74.90
2018-01-23T13:50:13.875Z,74.90
2018-01-23T13:52:41.489Z,74.90
2018-01-23T13:55:09.839Z,74.80
2018-01-23T13:57:37.422Z,74.70
2018-01-23T14:00:05.804Z,74.90
2018-01-23T14:02:34.155Z,74.90
2018-01-23T14:05:01.765Z,74.90
2018-01-23T14:07:29.390Z,75.00
2018-01-23T14:09:56.994Z,75.30
2018-01-23T14:12:24.612Z,75.20
2018-01-23T14:14:52.270Z,75.20
2018-01-23T14:17:19.936Z,75.20
2018-01-23T14:19:47.551Z,75.20
2018-01-23T14:22:15.159Z,75.40
2018-01-23T14:24:42.767Z,75.40
2018-01-23T14:27:10.382Z,75.50
2018-01-23T14:29:37.987Z,75.50
2018-01-23T14:32:05.603Z,75.60
2018-01-23T14:34:34.015Z,75.80
2018-01-23T14:37:02.467Z,75.80
2018-01-23T14:39:30.126Z,75.80
2018-01-23T14:41:57.743Z,75.80
2018-01-23T14:44:25.330Z,75.90
2018-01-23T14:46:52.947Z,75.90
2018-01-23T14:49:20.538Z,76.10
2018-01-23T14:51:48.143Z,76.10
2018-01-23T14:54:15.732Z,76.20
2018-01-23T14:56:43.344Z,76.10
2018-01-23T14:59:10.935Z,76.10
2018-01-23T15:01:39.311Z,77.00
2018-01-23T15:04:06.963Z,76.00
2018-01-23T15:06:34.618Z,76.00
2018-01-23T15:09:02.204Z,76.00
2018-01-23T15:11:30.579Z,76.20
2018-01-23T15:13:59.042Z,76.60
2018-01-23T15:16:27.415Z,76.40
2018-01-23T15:18:55.086Z,76.50
2018-01-23T15:21:22.694Z,76.50
2018-01-23T15:23:50.302Z,76.70
2018-01-23T15:26:17.891Z,76.80
2018-01-23T15:28:46.276Z,77.00
2018-01-23T15:31:14.630Z,77.10
2018-01-23T15:33:42.230Z,77.00
2018-01-23T15:36:09.824Z,77.20
2018-01-23T15:38:37.430Z,77.30
2018-01-23T15:41:05.782Z,77.60
2018-01-23T15:43:33.391Z,77.50
2018-01-23T15:46:00.982Z,77.90
2018-01-23T15:48:28.594Z,78.00
2018-01-23T15:50:56.959Z,78.50
2018-01-23T15:53:24.567Z,78.30
2018-01-23T15:55:52.184Z,78.30
2018-01-23T15:58:19.791Z,78.20
2018-01-23T16:00:47.379Z,78.40
2018-01-23T16:03:15.120Z,78.50
2018-01-23T16:05:42.705Z,78.50
2018-01-23T16:08:10.315Z,78.50
2018-01-23T16:10:38.672Z,79.00
2018-01-23T16:13:06.335Z,79.00
2018-01-23T16:15:33.991Z,79.30
2018-01-23T16:18:01.578Z,79.60
2018-01-23T16:20:30.039Z,79.90
2018-01-23T16:22:57.698Z,79.90
2018-01-23T16:25:25.303Z,80.10
2018-01-23T16:27:53.438Z,80.20
2018-01-23T16:30:21.099Z,80.20
2018-01-23T16:32:48.763Z,80.20
2018-01-23T16:35:16.422Z,80.30
2018-01-23T16:37:44.154Z,80.30
2018-01-23T16:40:11.851Z,80.30
2018-01-23T16:42:40.946Z,80.50
2018-01-23T16:45:08.612Z,80.40
2018-01-23T16:47:36.198Z,80.40
2018-01-23T16:50:04.711Z,80.40
2018-01-23T16:52:32.318Z,80.20
2018-01-23T16:54:59.923Z,80.20
2018-01-23T16:57:27.508Z,80.10
2018-01-23T16:59:55.118Z,80.10
2018-01-23T17:02:23.583Z,80.20
2018-01-23T17:04:51.247Z,80.10
2018-01-23T17:07:18.908Z,80.20
2018-01-23T17:09:46.494Z,80.20
2018-01-23T17:12:14.876Z,80.40
2018-01-23T17:14:43.226Z,80.40
2018-01-23T17:17:10.891Z,80.40
2018-01-23T17:19:38.605Z,80.60
2018-01-23T17:22:06.966Z,80.70
2018-01-23T17:24:35.414Z,80.80
2018-01-23T17:27:03.022Z,80.80
2018-01-23T17:29:30.639Z,80.80
2018-01-23T17:31:58.305Z,80.80
2018-01-23T17:34:25.894Z,81.70
2018-01-23T17:36:54.275Z,81.00
2018-01-23T17:39:22.722Z,81.00
2018-01-23T17:41:50.331Z,80.90
2018-01-23T17:44:17.915Z,80.80
2018-01-23T17:46:45.498Z,80.90
2018-01-23T17:49:13.172Z,80.80
2018-01-23T17:51:40.839Z,80.80
2018-01-23T17:54:08.494Z,80.90
2018-01-23T17:56:36.082Z,80.90
2018-01-23T17:59:04.543Z,80.80
2018-01-23T18:01:32.202Z,80.80
2018-01-23T18:03:59.811Z,81.00
2018-01-23T18:06:27.423Z,81.10
2018-01-23T18:08:55.030Z,81.20
2018-01-23T18:11:22.647Z,82.20
2018-01-23T18:13:50.258Z,81.50
2018-01-23T18:16:17.879Z,81.40
2018-01-23T18:18:45.534Z,81.50
2018-01-23T18:21:13.195Z,82.10
2018-01-23T18:23:40.859Z,81.40
2018-01-23T18:26:08.446Z,81.50
2018-01-23T18:28:36.822Z,81.70
2018-01-23T18:31:05.319Z,81.90
2018-01-23T18:33:33.690Z,82.00
2018-01-23T18:36:02.143Z,81.80
2018-01-23T18:38:30.551Z,82.00
2018-01-23T18:40:59.003Z,81.90
2018-01-23T18:43:26.667Z,81.90
2018-01-23T18:45:54.278Z,81.90
2018-01-23T18:48:21.872Z,81.80
2018-01-23T18:50:49.551Z,81.80
2018-01-23T18:53:17.214Z,81.70
2018-01-23T18:55:44.881Z,81.50
2018-01-23T18:58:13.235Z,81.50
2018-01-23T19:00:40.919Z,81.40
2018-01-23T19:03:08.671Z,81.40
2018-01-23T19:05:36.278Z,81.40
2018-01-23T19:08:04.630Z,81.60
2018-01-23T19:10:32.234Z,81.60
2018-01-23T19:12:59.819Z,81.80
2018-01-23T19:15:27.472Z,81.90
2018-01-23T19:17:55.242Z,82.00
2018-01-23T19:20:22.939Z,82.00
2018-01-23T19:22:50.606Z,82.00
2018-01-23T19:25:18.219Z,82.00
2018-01-23T19:27:45.810Z,82.10
2018-01-23T19:30:13.395Z,82.10
2018-01-23T19:32:41.046Z,82.10
2018-01-23T19:35:08.711Z,82.00
2018-01-23T19:37:36.318Z,82.00
2018-01-23T19:40:03.903Z,82.00
2018-01-23T19:42:31.594Z,82.00
2018-01-23T19:44:59.258Z,82.00
2018-01-23T19:47:26.922Z,82.10
2018-01-23T19:49:54.574Z,82.00
2018-01-23T19:52:22.181Z,82.20
2018-01-23T19:54:50.530Z,82.30
2018-01-23T19:57:18.186Z,82.30
2018-01-23T19:59:45.780Z,82.40
2018-01-23T20:02:13.516Z,82.30
2018-01-23T20:04:41.179Z,82.20
2018-01-23T20:07:08.840Z,82.10
2018-01-23T20:09:37.318Z,82.50
2018-01-23T20:12:04.909Z,82.30
2018-01-23T20:14:33.359Z,82.60
2018-01-23T20:17:01.027Z,82.70
2018-01-23T20:19:28.690Z,82.60
2018-01-23T20:21:56.350Z,82.60
2018-01-23T20:24:23.959Z,82.60
2018-01-23T20:26:51.581Z,82.70
2018-01-23T20:29:19.186Z,82.60
2018-01-23T20:31:46.803Z,82.60
2018-01-23T20:34:14.415Z,82.70
2018-01-23T20:36:42.022Z,82.70
2018-01-23T20:39:09.686Z,82.70
2018-01-23T20:41:37.350Z,82.60
2018-01-23T20:44:04.955Z,82.50
2018-01-23T20:46:32.572Z,82.60
2018-01-23T20:49:00.163Z,82.50
2018-01-23T20:51:28.617Z,82.20
2018-01-23T20:53:56.211Z,82.20
2018-01-23T20:56:23.834Z,82.30
2018-01-23T20:58:51.419Z,82.30
2018-01-23T21:01:19.795Z,82.30
2018-01-23T21:03:48.147Z,82.20
2018-01-23T21:06:15.819Z,82.20
2018-01-23T21:08:43.403Z,82.20
2018-01-23T21:11:11.774Z,82.20
2018-01-23T21:13:39.359Z,82.20
2018-01-23T21:16:06.966Z,82.00
2018-01-23T21:18:34.551Z,82.00
2018-01-23T21:21:03.674Z,81.90
2018-01-23T21:23:32.023Z,82.00
2018-01-23T21:25:59.683Z,81.90
2018-01-23T21:28:27.275Z,82.00
2018-01-23T21:30:55.642Z,82.00
2018-01-23T21:33:23.990Z,81.70
2018-01-23T21:35:51.602Z,81.70
2018-01-23T21:38:19.187Z,81.70
2018-01-23T21:40:46.886Z,81.50
2018-01-23T21:43:14.616Z,81.50
2018-01-23T21:45:42.213Z,81.50
2018-01-23T21:48:09.875Z,81.50
2018-01-23T21:50:37.467Z,81.30
2018-01-23T21:53:05.851Z,81.10
2018-01-23T21:55:34.299Z,81.00
2018-01-23T21:58:01.903Z,81.00
2018-01-23T22:00:29.518Z,80.90
2018-01-23T22:02:57.159Z,80.80
2018-01-23T22:05:24.847Z,80.80
2018-01-23T22:07:52.454Z,80.80
2018-01-23T22:10:20.036Z,80.80
2018-01-23T22:12:47.731Z,80.80
2018-01-23T22:15:15.359Z,81.60
2018-01-23T22:17:43.058Z,80.80
2018-01-23T22:20:10.719Z,80.90
2018-01-23T22:22:38.383Z,80.90
2018-01-23T22:25:06.767Z,81.10
2018-01-23T22:27:34.375Z,81.10
2018-01-23T22:30:01.956Z,81.10
2018-01-23T22:32:29.559Z,81.10
2018-01-23T22:34:57.903Z,81.20
2018-01-23T22:37:25.586Z,81.00
2018-01-23T22:39:53.194Z,81.10
2018-01-23T22:42:20.815Z,81.30
2018-01-23T22:44:48.418Z,81.50
2018-01-23T22:47:16.039Z,81.70
2018-01-23T22:49:43.651Z,81.90
2018-01-23T22:52:11.235Z,81.90
2018-01-23T22:54:38.970Z,82.00
2018-01-23T22:57:07.303Z,81.80
2018-01-23T22:59:34.906Z,81.70
2018-01-23T23:02:02.528Z,81.80
2018-01-23T23:04:30.187Z,81.70
2018-01-23T23:06:57.774Z,81.50
2018-01-23T23:09:26.231Z,81.70
2018-01-23T23:11:53.859Z,81.60
2018-01-23T23:14:21.554Z,81.80
2018-01-23T23:16:49.218Z,81.80
2018-01-23T23:19:16.882Z,81.90
2018-01-23T23:21:44.546Z,81.80
2018-01-23T23:24:12.922Z,81.70
2018-01-23T23:26:40.527Z,81.60
2018-01-23T23:29:08.110Z,81.60
2018-01-23T23:31:35.711Z,81.50
2018-01-23T23:34:04.902Z,81.30
2018-01-23T23:36:32.502Z,81.20
2018-01-23T23:39:00.846Z,81.40
2018-01-23T23:41:28.507Z,81.30
2018-01-23T23:43:56.166Z,81.30
2018-01-23T23:46:23.770Z,81.30
2018-01-23T23:48:52.123Z,81.20
2018-01-23T23:51:20.495Z,81.30
2018-01-23T23:53:48.074Z,81.30
2018-01-23T23:56:16.446Z,81.70
2018-01-23T23:58:44.815Z,82.60
